Ashley Falls, Massachusetts
Current Conditions -  °F | °C
As of 11:10 PM on Wednesday 22 Oct 2014 (Local Time) from KPSF Reporting Station
Light Rain Light Rain  
Wind Chill: 42°   Ceiling: 1400
Heat Index: 47°   Visibility: 10mi
Dew Point: 44°   Wind: 12mph
Humidity: 90%   Direction: 40°NE
Pressure: 29.86"   Gusts: 23mph
Location:  42.06°N, 73.34°W
Report Text: KPSF 230310Z AUTO 04010G20KT 10SM -RA OVC014 08/07 A2986 RMK AO2 RAB0257 P0000 T00830067
Loading
Personal Weather Stations






























Interactive Weather Map New forecast layout! Learn more

10-Day Weather Forecast

Advertisements
Track Severe Weather on mobile